LTCF Airport Information

Runway Information
Runway 06 Length 11483 ft width 148 ft
Elevation 5873 ft Threshold 0 ft Heading 64
Runway 24 Length 11483 ft Width 148 ft
Elevation 5869 ft Threshold 0 ft Heading 244
Airport Frequencies
Type TWR Name TWR Frequency 122.4 MHZ
Airport Navaids
Type VOR-DME Name Kars Frequency 113800 KHZ
Type NDB Name Kars Frequency 431 KHZ
Airport Weather Information & NOTAM
ADDS - METARS form results

(0332 UTC 23 August 2019)
Data provider http://aviationweather.gov/metar/data/
 
METAR text: LTCF 230250Z 00000KT CAVOK 09/01 Q1019
Conditions at: LTCF (KARS , TR) observed 0250 UTC 23 August 2019
Temperature: 9.0°C (48°F)
Dewpoint: 1.0°C (34°F) [RH = 57%]
Pressure (altimeter): 30.09 inches Hg (1019.0 mb)
Winds: calm
Visibility: 6 or more miles (10+ km)
Ceiling: ceiling and visibility are OK
Clouds: unknown
Weather: no significant weather observed at this time

Forecast for: LTCF (KARS , TR)
Text: TAF LTCF 230140Z 2303/2312 12009KT CAVOK
Forecast period: 0300 to 1200 UTC 23 August 2019
Forecast type: FROM: standard forecast or significant change
Winds: from the ESE (120 degrees) at 10 MPH (9 knots; 4.6 m/s)
Visibility: 6 or more miles 10+ km)
Ceiling: unknown
Clouds: missing
Weather: NSW  (no significant weather)